createdAt,value
2018-08-07T00:02:18.232Z,25.60
2018-08-07T00:04:53.580Z,25.60
2018-08-07T00:07:28.791Z,25.60
2018-08-07T00:10:04.844Z,25.50
2018-08-07T00:12:40.204Z,25.50
2018-08-07T00:15:15.207Z,25.50
2018-08-07T00:17:51.679Z,25.50
2018-08-07T00:20:26.526Z,25.50
2018-08-07T00:23:01.751Z,25.50
2018-08-07T00:25:36.633Z,25.50
2018-08-07T00:28:11.608Z,25.50
2018-08-07T00:30:46.771Z,25.40
2018-08-07T00:33:21.882Z,25.40
2018-08-07T00:35:57.064Z,25.30
2018-08-07T00:38:32.100Z,25.20
2018-08-07T00:41:07.558Z,25.10
2018-08-07T00:43:42.501Z,25.10
2018-08-07T00:48:52.279Z,24.80
2018-08-07T00:54:02.363Z,24.70
2018-08-07T00:56:37.596Z,24.70
2018-08-07T00:59:12.374Z,24.60
2018-08-07T01:01:47.199Z,24.70
2018-08-07T01:04:22.088Z,24.80
2018-08-07T01:06:57.585Z,24.70
2018-08-07T01:09:32.794Z,24.70
2018-08-07T01:12:07.989Z,24.50
2018-08-07T01:14:43.124Z,24.40
2018-08-07T01:19:52.661Z,24.30
2018-08-07T01:22:27.731Z,24.20
2018-08-07T01:25:02.776Z,24.30
2018-08-07T01:27:37.882Z,24.30
2018-08-07T01:30:16.688Z,24.10
2018-08-07T01:32:52.078Z,24.10
2018-08-07T01:35:29.225Z,24.00
2018-08-07T01:38:04.159Z,23.90
2018-08-07T01:40:39.208Z,24.00
2018-08-07T01:43:14.585Z,24.10
2018-08-07T01:45:49.400Z,24.10
2018-08-07T01:48:24.700Z,24.10
2018-08-07T01:50:59.446Z,24.20
2018-08-07T01:53:34.482Z,24.10
2018-08-07T01:56:10.063Z,24.10
2018-08-07T01:58:45.172Z,24.10
2018-08-07T02:01:20.418Z,24.00
2018-08-07T02:03:55.294Z,24.00
2018-08-07T02:06:30.515Z,23.90
2018-08-07T02:09:08.054Z,23.80
2018-08-07T02:11:43.407Z,23.70
2018-08-07T02:14:19.294Z,23.70
2018-08-07T02:16:54.183Z,23.70
2018-08-07T02:19:29.104Z,23.60
2018-08-07T02:22:04.603Z,23.60
2018-08-07T02:24:40.031Z,23.60
2018-08-07T02:27:15.639Z,23.50
2018-08-07T02:29:50.616Z,23.50
2018-08-07T02:32:25.636Z,23.30
2018-08-07T02:35:00.859Z,23.30
2018-08-07T02:37:35.935Z,23.40
2018-08-07T02:40:12.205Z,23.40
2018-08-07T02:42:47.752Z,23.20
2018-08-07T02:45:22.733Z,23.40
2018-08-07T02:47:57.948Z,23.20
2018-08-07T02:50:33.592Z,23.20
2018-08-07T02:53:09.023Z,23.10
2018-08-07T02:55:44.430Z,23.20
2018-08-07T02:58:19.567Z,23.10
2018-08-07T03:00:54.709Z,23.10
2018-08-07T03:03:30.636Z,23.10
2018-08-07T03:06:05.834Z,23.00
2018-08-07T03:08:40.857Z,23.00
2018-08-07T03:11:15.818Z,23.00
2018-08-07T03:13:50.768Z,23.00
2018-08-07T03:19:00.352Z,23.00
2018-08-07T03:21:35.868Z,23.00
2018-08-07T03:24:10.960Z,23.00
2018-08-07T03:26:45.987Z,23.00
2018-08-07T03:29:20.921Z,23.00
2018-08-07T03:31:56.039Z,23.00
2018-08-07T03:34:31.172Z,23.00
2018-08-07T03:37:06.907Z,23.00
2018-08-07T03:39:41.965Z,23.00
2018-08-07T03:42:16.965Z,23.00
2018-08-07T03:44:52.037Z,23.00
2018-08-07T03:47:27.187Z,23.00
2018-08-07T03:50:02.687Z,23.00
2018-08-07T03:52:38.054Z,23.00
2018-08-07T03:55:15.403Z,23.10
2018-08-07T03:57:50.596Z,23.10
2018-08-07T04:00:25.547Z,23.20
2018-08-07T04:03:00.915Z,23.30
2018-08-07T04:05:36.605Z,23.40
2018-08-07T04:08:11.263Z,23.30
2018-08-07T04:10:46.434Z,23.40
2018-08-07T04:13:21.453Z,23.50
2018-08-07T04:15:56.481Z,23.40
2018-08-07T04:18:31.672Z,23.50
2018-08-07T04:21:07.047Z,23.50
2018-08-07T04:23:42.631Z,23.40
2018-08-07T04:26:17.806Z,23.50
2018-08-07T04:28:53.029Z,23.50
2018-08-07T04:31:28.315Z,23.50
2018-08-07T04:34:03.103Z,23.50
2018-08-07T04:36:37.848Z,23.40
2018-08-07T04:39:13.830Z,23.50
2018-08-07T04:41:49.017Z,23.50
2018-08-07T04:44:24.063Z,23.50
2018-08-07T04:46:59.339Z,23.50
2018-08-07T04:49:34.499Z,23.50
2018-08-07T04:52:09.256Z,23.50
2018-08-07T04:54:44.468Z,23.50
2018-08-07T04:57:19.739Z,23.50
2018-08-07T04:59:55.139Z,23.50
2018-08-07T05:02:30.342Z,23.60
2018-08-07T05:05:06.909Z,23.60
2018-08-07T05:07:41.632Z,23.70
2018-08-07T05:10:17.841Z,23.70
2018-08-07T05:12:53.285Z,23.70
2018-08-07T05:15:29.146Z,23.70
2018-08-07T05:18:04.439Z,23.70
2018-08-07T05:20:39.576Z,23.70
2018-08-07T05:23:14.872Z,23.70
2018-08-07T05:25:49.642Z,23.80
2018-08-07T05:28:24.605Z,23.80
2018-08-07T05:31:00.966Z,23.80
2018-08-07T05:36:11.611Z,23.80
2018-08-07T05:38:47.181Z,23.80
2018-08-07T05:41:22.138Z,23.80
2018-08-07T05:43:57.233Z,23.80
2018-08-07T05:46:36.963Z,23.90
2018-08-07T05:49:13.140Z,23.90
2018-08-07T05:51:51.278Z,23.90
2018-08-07T05:54:26.635Z,23.90
2018-08-07T05:57:01.892Z,23.90
2018-08-07T06:02:11.785Z,24.00
2018-08-07T06:04:47.486Z,24.10
2018-08-07T06:07:22.808Z,24.10
2018-08-07T06:09:58.264Z,24.20
2018-08-07T06:12:33.426Z,24.20
2018-08-07T06:15:10.823Z,24.20
2018-08-07T06:17:46.543Z,24.30
2018-08-07T06:20:21.538Z,24.30
2018-08-07T06:22:56.681Z,24.30
2018-08-07T06:25:31.922Z,24.40
2018-08-07T06:28:07.048Z,24.40
2018-08-07T06:30:42.017Z,24.40
2018-08-07T06:33:17.863Z,24.50
2018-08-07T06:35:52.891Z,24.60
2018-08-07T06:38:27.663Z,24.60
2018-08-07T06:41:02.930Z,24.60
2018-08-07T06:43:38.328Z,24.70
2018-08-07T06:46:13.635Z,24.70
2018-08-07T06:48:49.048Z,24.80
2018-08-07T06:51:24.262Z,24.80
2018-08-07T06:53:59.578Z,24.80
2018-08-07T06:56:34.597Z,24.80
2018-08-07T06:59:09.674Z,24.80
2018-08-07T07:01:44.967Z,24.90
2018-08-07T07:04:19.968Z,24.90
2018-08-07T07:06:55.869Z,25.00
2018-08-07T07:09:30.992Z,25.00
2018-08-07T07:12:07.111Z,25.00
2018-08-07T07:14:42.684Z,25.00
2018-08-07T07:17:18.118Z,25.10
2018-08-07T07:19:53.523Z,25.10
2018-08-07T07:22:29.287Z,25.20
2018-08-07T07:25:04.650Z,25.20
2018-08-07T07:27:40.527Z,25.20
2018-08-07T07:30:17.687Z,25.30
2018-08-07T07:32:54.125Z,25.30
2018-08-07T07:35:29.474Z,25.40
2018-08-07T07:38:04.755Z,25.40
2018-08-07T07:40:39.917Z,25.40
2018-08-07T07:43:15.116Z,25.50
2018-08-07T07:45:50.334Z,25.60
2018-08-07T07:48:25.258Z,25.60
2018-08-07T07:51:00.268Z,25.60
2018-08-07T07:53:35.579Z,25.70
2018-08-07T07:56:12.983Z,25.70
2018-08-07T07:58:47.885Z,25.80
2018-08-07T08:01:23.250Z,25.80
2018-08-07T08:03:58.567Z,25.80
2018-08-07T08:06:33.736Z,25.90
2018-08-07T08:09:08.989Z,25.90
2018-08-07T08:11:43.964Z,26.00
2018-08-07T08:14:19.106Z,26.00
2018-08-07T08:16:54.577Z,26.10
2018-08-07T08:19:29.568Z,26.10
2018-08-07T08:22:04.694Z,26.20
2018-08-07T08:24:39.787Z,26.20
2018-08-07T08:27:15.974Z,26.30
2018-08-07T08:29:55.884Z,26.30
2018-08-07T08:32:32.935Z,26.40
2018-08-07T08:35:10.690Z,26.50
2018-08-07T08:37:46.157Z,26.50
2018-08-07T08:40:22.849Z,26.60
2018-08-07T08:42:58.871Z,26.60
2018-08-07T08:45:33.874Z,26.60
2018-08-07T08:50:45.048Z,26.70
2018-08-07T08:53:20.499Z,26.90
2018-08-07T08:55:55.441Z,27.00
2018-08-07T08:58:31.375Z,27.10
2018-08-07T09:01:06.953Z,27.10
2018-08-07T09:03:41.945Z,27.40
2018-08-07T09:06:17.588Z,27.40
2018-08-07T09:08:52.746Z,27.50
2018-08-07T09:11:28.304Z,27.50
2018-08-07T09:14:03.610Z,27.60
2018-08-07T09:16:39.333Z,27.50
2018-08-07T09:19:14.904Z,27.50
2018-08-07T09:21:51.162Z,27.60
2018-08-07T09:24:26.487Z,27.70
2018-08-07T09:27:01.646Z,27.80
2018-08-07T09:29:36.725Z,27.80
2018-08-07T09:32:12.304Z,27.90
2018-08-07T09:34:47.463Z,27.90
2018-08-07T09:37:23.315Z,27.90
2018-08-07T09:39:58.912Z,27.90
2018-08-07T09:42:34.452Z,28.00
2018-08-07T09:45:11.366Z,28.10
2018-08-07T09:47:46.892Z,28.20
2018-08-07T09:50:22.468Z,28.30
2018-08-07T09:52:57.721Z,28.40
2018-08-07T09:55:32.637Z,28.50
2018-08-07T09:58:08.041Z,28.50
2018-08-07T10:00:48.910Z,28.60
2018-08-07T10:03:24.890Z,28.70
2018-08-07T10:05:59.906Z,28.90
2018-08-07T10:08:35.051Z,29.00
2018-08-07T10:11:09.988Z,29.00
2018-08-07T10:13:44.993Z,29.00
2018-08-07T10:16:20.355Z,29.00
2018-08-07T10:18:55.807Z,28.90
2018-08-07T10:21:31.113Z,28.90
2018-08-07T10:24:06.655Z,28.90
2018-08-07T10:26:42.348Z,29.00
2018-08-07T10:29:18.544Z,29.20
2018-08-07T10:31:53.733Z,29.30
2018-08-07T10:34:28.689Z,29.40
2018-08-07T10:37:04.735Z,29.40
2018-08-07T10:39:39.969Z,29.60
2018-08-07T10:42:15.238Z,29.60
2018-08-07T10:47:25.540Z,29.60
2018-08-07T10:50:00.901Z,29.70
2018-08-07T10:52:36.106Z,29.80
2018-08-07T10:55:11.164Z,29.80
2018-08-07T10:57:48.146Z,29.90
2018-08-07T11:00:28.459Z,29.90
2018-08-07T11:03:04.172Z,29.90
2018-08-07T11:05:39.182Z,30.20
2018-08-07T11:08:14.514Z,30.50
2018-08-07T11:10:49.913Z,30.60
2018-08-07T11:13:25.301Z,30.90
2018-08-07T11:16:00.352Z,30.80
2018-08-07T11:18:35.239Z,30.90
2018-08-07T11:21:11.098Z,30.90
2018-08-07T11:23:46.321Z,30.90
2018-08-07T11:26:21.770Z,31.10
2018-08-07T11:28:57.805Z,31.20
2018-08-07T11:31:33.468Z,31.20
2018-08-07T11:34:08.911Z,31.10
2018-08-07T11:36:43.934Z,31.10
2018-08-07T11:39:19.137Z,31.20
2018-08-07T11:41:54.261Z,31.30
2018-08-07T11:44:30.239Z,31.50
2018-08-07T11:47:06.365Z,31.70
2018-08-07T11:49:41.818Z,31.80
2018-08-07T11:52:16.939Z,31.90
2018-08-07T11:57:28.012Z,32.30
2018-08-07T12:00:02.956Z,32.40
2018-08-07T12:02:38.584Z,32.20
2018-08-07T12:05:13.938Z,31.90
2018-08-07T12:07:49.249Z,31.80
2018-08-07T12:10:24.721Z,31.70
2018-08-07T12:12:59.727Z,31.60
2018-08-07T12:15:35.878Z,31.80
2018-08-07T12:18:11.257Z,32.00
2018-08-07T12:20:46.671Z,32.40
2018-08-07T12:23:22.242Z,32.60
2018-08-07T12:25:57.795Z,32.70
2018-08-07T12:28:33.410Z,32.80
2018-08-07T12:31:09.172Z,32.90
2018-08-07T12:33:43.976Z,33.00
2018-08-07T12:36:19.541Z,33.00
2018-08-07T12:38:55.121Z,33.00
2018-08-07T12:41:30.541Z,33.10
2018-08-07T12:44:06.316Z,33.20
2018-08-07T12:46:42.603Z,33.20
2018-08-07T12:49:18.439Z,33.30
2018-08-07T12:51:54.226Z,33.40
2018-08-07T12:54:30.368Z,33.50
2018-08-07T12:57:06.082Z,33.60
2018-08-07T12:59:41.822Z,33.70
2018-08-07T13:02:18.110Z,33.90
2018-08-07T13:04:55.778Z,33.90
2018-08-07T13:07:31.562Z,33.90
2018-08-07T13:10:12.067Z,33.80
2018-08-07T13:12:48.217Z,33.90
2018-08-07T13:15:24.121Z,33.80
2018-08-07T13:17:59.486Z,34.00
2018-08-07T13:20:35.127Z,34.10
2018-08-07T13:23:10.281Z,34.30
2018-08-07T13:25:46.185Z,34.40
2018-08-07T13:28:21.927Z,34.40
2018-08-07T13:31:00.746Z,34.30
2018-08-07T13:33:36.241Z,34.30
2018-08-07T13:36:12.261Z,34.40
2018-08-07T13:38:48.121Z,34.30
2018-08-07T13:41:23.696Z,34.30
2018-08-07T13:46:35.922Z,34.60
2018-08-07T13:49:11.635Z,34.80
2018-08-07T13:51:48.411Z,34.80
2018-08-07T13:54:23.910Z,34.90
2018-08-07T13:56:59.215Z,34.90
2018-08-07T13:59:35.049Z,34.90
2018-08-07T14:02:10.134Z,34.80
2018-08-07T14:04:45.876Z,34.80
2018-08-07T14:07:21.896Z,34.80
2018-08-07T14:12:32.519Z,34.80
2018-08-07T14:15:09.340Z,34.80
2018-08-07T14:17:45.525Z,34.70
2018-08-07T14:20:20.969Z,34.60
2018-08-07T14:22:56.665Z,34.60
2018-08-07T14:25:31.695Z,34.80
2018-08-07T14:28:06.764Z,34.80
2018-08-07T14:30:42.056Z,34.70
2018-08-07T14:33:17.122Z,34.80
2018-08-07T14:35:52.849Z,34.90
2018-08-07T14:38:28.691Z,35.00
2018-08-07T14:41:03.914Z,34.90
2018-08-07T14:43:38.547Z,34.90
2018-08-07T14:46:14.645Z,34.90
2018-08-07T14:48:50.713Z,34.80
2018-08-07T14:51:26.222Z,34.70
2018-08-07T14:54:02.117Z,34.50
2018-08-07T14:56:37.923Z,34.40
2018-08-07T14:59:14.186Z,34.50
2018-08-07T15:01:50.166Z,34.70
2018-08-07T15:04:27.551Z,34.80
2018-08-07T15:09:38.595Z,34.90
2018-08-07T15:12:14.535Z,34.90
2018-08-07T15:14:50.799Z,35.00
2018-08-07T15:17:25.906Z,35.10
2018-08-07T15:20:01.720Z,35.10
2018-08-07T15:22:37.800Z,35.00
2018-08-07T15:25:14.775Z,35.00
2018-08-07T15:27:50.890Z,34.90
2018-08-07T15:30:27.226Z,34.90
2018-08-07T15:33:02.374Z,35.10
2018-08-07T15:35:38.008Z,35.30
2018-08-07T15:38:13.823Z,35.40
2018-08-07T15:40:49.321Z,35.50
2018-08-07T15:43:24.263Z,35.60
2018-08-07T15:45:59.522Z,35.70
2018-08-07T15:48:35.648Z,35.70
2018-08-07T15:51:12.097Z,35.70
2018-08-07T15:53:48.378Z,35.70
2018-08-07T15:56:23.758Z,35.70
2018-08-07T15:58:58.691Z,35.80
2018-08-07T16:01:34.099Z,35.70
2018-08-07T16:06:44.075Z,35.90
2018-08-07T16:09:19.097Z,35.90
2018-08-07T16:11:54.669Z,35.80
2018-08-07T16:14:30.162Z,35.70
2018-08-07T16:17:06.048Z,35.70
2018-08-07T16:19:41.421Z,35.60
2018-08-07T16:22:16.428Z,35.50
2018-08-07T16:24:51.787Z,35.50
2018-08-07T16:27:26.946Z,35.50
2018-08-07T16:30:03.411Z,35.60
2018-08-07T16:32:38.310Z,35.60
2018-08-07T16:35:14.114Z,35.60
2018-08-07T16:37:50.097Z,35.70
2018-08-07T16:40:25.722Z,35.80
2018-08-07T16:43:00.928Z,35.70
2018-08-07T16:45:37.609Z,35.80
2018-08-07T16:48:12.488Z,35.80
2018-08-07T16:50:47.875Z,35.80
2018-08-07T16:53:23.116Z,35.80
2018-08-07T16:55:58.624Z,35.70
2018-08-07T16:58:34.978Z,35.70
2018-08-07T17:01:10.579Z,35.70
2018-08-07T17:03:46.328Z,35.60
2018-08-07T17:06:21.417Z,35.60
2018-08-07T17:08:57.115Z,35.50
2018-08-07T17:11:32.240Z,35.50
2018-08-07T17:14:07.786Z,35.40
2018-08-07T17:16:43.363Z,35.30
2018-08-07T17:19:19.401Z,35.20
2018-08-07T17:21:54.823Z,35.10
2018-08-07T17:24:29.601Z,35.10
2018-08-07T17:27:04.847Z,35.00
2018-08-07T17:29:40.745Z,34.90
2018-08-07T17:32:17.385Z,34.80
2018-08-07T17:34:53.624Z,34.70
2018-08-07T17:37:33.761Z,34.60
2018-08-07T17:40:11.153Z,34.40
2018-08-07T17:42:46.848Z,34.30
2018-08-07T17:45:22.839Z,34.20
2018-08-07T17:48:00.721Z,34.10
2018-08-07T17:50:36.911Z,34.00
2018-08-07T17:53:12.795Z,33.90
2018-08-07T17:55:48.482Z,33.80
2018-08-07T17:58:24.062Z,33.70
2018-08-07T18:00:59.589Z,33.70
2018-08-07T18:03:35.176Z,33.60
2018-08-07T18:06:10.929Z,33.50
2018-08-07T18:08:47.307Z,33.40
2018-08-07T18:11:22.818Z,33.40
2018-08-07T18:13:58.396Z,33.30
2018-08-07T18:16:34.082Z,33.20
2018-08-07T18:19:09.199Z,33.20
2018-08-07T18:24:19.646Z,33.10
2018-08-07T18:26:55.106Z,33.00
2018-08-07T18:29:31.133Z,32.90
2018-08-07T18:32:06.353Z,32.80
2018-08-07T18:34:41.229Z,32.80
2018-08-07T18:37:16.630Z,32.70
2018-08-07T18:39:51.963Z,32.60
2018-08-07T18:42:27.544Z,32.60
2018-08-07T18:45:03.145Z,32.50
2018-08-07T18:47:39.443Z,32.40
2018-08-07T18:50:17.612Z,32.30
2018-08-07T18:52:53.265Z,32.20
2018-08-07T18:55:28.788Z,32.10
2018-08-07T18:58:04.572Z,32.00
2018-08-07T19:00:39.763Z,31.90
2018-08-07T19:03:18.621Z,31.90
2018-08-07T19:05:59.134Z,31.80
2018-08-07T19:08:34.754Z,31.70
2018-08-07T19:11:10.126Z,31.60
2018-08-07T19:13:46.784Z,31.50
2018-08-07T19:16:21.857Z,31.40
2018-08-07T19:18:56.950Z,31.40
2018-08-07T19:21:33.299Z,31.30
2018-08-07T19:24:08.185Z,31.20
2018-08-07T19:26:43.256Z,31.10
2018-08-07T19:29:18.109Z,31.00
2018-08-07T19:31:54.085Z,30.90
2018-08-07T19:34:29.148Z,30.80
2018-08-07T19:37:04.556Z,30.70
2018-08-07T19:39:40.068Z,30.60
2018-08-07T19:42:15.023Z,30.40
2018-08-07T19:44:50.368Z,30.40
2018-08-07T19:47:25.522Z,30.20
2018-08-07T19:50:00.394Z,30.20
2018-08-07T19:52:35.932Z,30.10
2018-08-07T19:55:13.524Z,30.00
2018-08-07T19:57:49.747Z,29.90
2018-08-07T20:00:26.998Z,29.80
2018-08-07T20:03:02.442Z,29.80
2018-08-07T20:05:37.605Z,29.70
2018-08-07T20:08:13.964Z,29.70
2018-08-07T20:10:49.955Z,29.60
2018-08-07T20:13:26.111Z,29.60
2018-08-07T20:16:01.141Z,29.50
2018-08-07T20:18:37.224Z,29.50
2018-08-07T20:21:13.152Z,29.50
2018-08-07T20:23:48.486Z,29.50
2018-08-07T20:26:23.542Z,29.50
2018-08-07T20:28:59.344Z,29.50
2018-08-07T20:31:34.725Z,29.50
2018-08-07T20:34:09.995Z,29.50
2018-08-07T20:36:45.572Z,29.50
2018-08-07T20:39:21.279Z,29.60
2018-08-07T20:41:56.563Z,29.60
2018-08-07T20:44:32.041Z,29.60
2018-08-07T20:47:07.075Z,29.60
2018-08-07T20:49:42.393Z,29.60
2018-08-07T20:52:17.659Z,29.60
2018-08-07T20:54:52.922Z,29.50
2018-08-07T20:57:28.159Z,29.50
2018-08-07T21:00:03.472Z,29.50
2018-08-07T21:02:38.379Z,29.50
2018-08-07T21:05:13.782Z,29.50
2018-08-07T21:07:49.548Z,29.50
2018-08-07T21:10:26.484Z,29.60
2018-08-07T21:13:01.700Z,29.60
2018-08-07T21:15:36.628Z,29.60
2018-08-07T21:18:11.904Z,29.50
2018-08-07T21:20:47.541Z,29.50
2018-08-07T21:23:22.678Z,29.50
2018-08-07T21:25:57.403Z,29.40
2018-08-07T21:28:33.121Z,29.40
2018-08-07T21:31:08.757Z,29.40
2018-08-07T21:33:44.479Z,29.50
2018-08-07T21:36:19.824Z,29.40
2018-08-07T21:38:55.057Z,29.40
2018-08-07T21:44:05.307Z,29.40
2018-08-07T21:46:40.745Z,29.40
2018-08-07T21:49:15.683Z,29.40
2018-08-07T21:51:51.449Z,29.40
2018-08-07T21:54:26.427Z,29.40
2018-08-07T21:57:01.411Z,29.40
2018-08-07T21:59:36.551Z,29.40
2018-08-07T22:02:11.904Z,29.40
2018-08-07T22:04:46.685Z,29.30
2018-08-07T22:07:22.295Z,29.30
2018-08-07T22:09:57.487Z,29.30
2018-08-07T22:15:07.826Z,29.20
2018-08-07T22:17:43.001Z,29.20
2018-08-07T22:20:18.846Z,29.20
2018-08-07T22:22:54.039Z,29.10
2018-08-07T22:25:29.164Z,29.10
2018-08-07T22:28:04.996Z,29.10
2018-08-07T22:30:39.822Z,29.10
2018-08-07T22:33:14.702Z,29.10
2018-08-07T22:35:49.773Z,29.00
2018-08-07T22:40:59.673Z,29.00
2018-08-07T22:43:34.831Z,28.90
2018-08-07T22:46:09.812Z,28.90
2018-08-07T22:48:44.789Z,28.90
2018-08-07T22:51:21.123Z,28.80
2018-08-07T22:53:56.653Z,28.80
2018-08-07T22:56:31.706Z,28.80
2018-08-07T22:59:07.179Z,28.80
2018-08-07T23:01:42.154Z,28.70
2018-08-07T23:04:17.162Z,28.70
2018-08-07T23:06:53.178Z,28.60
2018-08-07T23:09:28.384Z,28.60
2018-08-07T23:12:04.668Z,28.60
2018-08-07T23:17:14.471Z,28.50
2018-08-07T23:19:49.737Z,28.60
2018-08-07T23:22:24.760Z,28.60
2018-08-07T23:25:00.392Z,28.50
2018-08-07T23:27:36.218Z,28.50
2018-08-07T23:30:13.580Z,28.40
2018-08-07T23:32:48.638Z,28.40
2018-08-07T23:35:23.849Z,28.40
2018-08-07T23:37:58.762Z,28.40
2018-08-07T23:40:34.343Z,28.40
2018-08-07T23:43:09.260Z,28.40
2018-08-07T23:48:18.918Z,28.40
2018-08-07T23:50:53.963Z,28.40
2018-08-07T23:53:29.716Z,28.40
2018-08-07T23:56:05.118Z,28.40
2018-08-07T23:58:40.083Z,28.40
